createdAt,value
2019-04-03T00:01:36.812Z,99402.45
2019-04-03T00:04:05.292Z,99391.52
2019-04-03T00:06:35.410Z,99387.61
2019-04-03T00:09:06.519Z,99381.29
2019-04-03T00:11:39.341Z,99368.36
2019-04-03T00:14:06.809Z,99367.20
2019-04-03T00:16:35.247Z,99362.75
2019-04-03T00:19:03.699Z,99364.66
2019-04-03T00:21:32.246Z,99357.48
2019-04-03T00:24:00.762Z,99367.39
2019-04-03T00:26:30.767Z,99369.78
2019-04-03T00:28:59.345Z,99361.58
2019-04-03T00:31:27.768Z,99353.37
2019-04-03T00:33:56.181Z,99354.75
2019-04-03T00:36:24.596Z,99358.02
2019-04-03T00:38:54.270Z,99364.31
2019-04-03T00:41:24.793Z,99367.59
2019-04-03T00:43:54.450Z,99359.59
2019-04-03T00:46:24.463Z,99358.22
2019-04-03T00:48:55.350Z,99363.34
2019-04-03T00:51:23.697Z,99359.59
2019-04-03T00:53:52.204Z,99356.86
2019-04-03T00:56:20.641Z,99358.22
2019-04-03T00:58:49.074Z,99350.22
2019-04-03T01:01:17.488Z,99354.63
2019-04-03T01:03:45.962Z,99348.31
2019-04-03T01:06:14.396Z,99346.32
2019-04-03T01:08:42.947Z,99349.05
2019-04-03T01:11:11.450Z,99345.77
2019-04-03T01:13:39.942Z,99345.97
2019-04-03T01:16:08.394Z,99350.08
2019-04-03T01:18:36.805Z,99345.97
2019-04-03T01:21:06.844Z,99345.47
2019-04-03T01:23:37.864Z,99345.97
2019-04-03T01:26:05.835Z,99337.78
2019-04-03T01:28:34.260Z,99334.73
2019-04-03T01:31:02.648Z,99327.05
2019-04-03T01:33:31.238Z,99333.36
2019-04-03T01:35:59.677Z,99327.59
2019-04-03T01:38:28.101Z,99331.14
2019-04-03T01:40:56.707Z,99328.95
2019-04-03T01:43:25.109Z,99327.05
2019-04-03T01:45:54.882Z,99323.14
2019-04-03T01:48:23.879Z,99320.09
2019-04-03T01:50:52.395Z,99317.36
2019-04-03T01:53:20.905Z,99309.36
2019-04-03T01:55:49.301Z,99305.77
2019-04-03T01:58:17.715Z,99310.19
2019-04-03T02:00:46.196Z,99296.72
2019-04-03T02:03:14.681Z,99295.05
2019-04-03T02:05:43.795Z,99294.70
2019-04-03T02:08:14.564Z,99302.89
2019-04-03T02:10:42.802Z,99298.66
2019-04-03T02:13:11.240Z,99297.28
2019-04-03T02:18:07.026Z,99297.28
2019-04-03T02:20:35.505Z,99292.02
2019-04-03T02:23:03.892Z,99292.16
2019-04-03T02:25:32.539Z,99292.02
2019-04-03T02:28:03.248Z,99293.19
2019-04-03T02:30:31.481Z,99283.00
2019-04-03T02:33:00.036Z,99288.77
2019-04-03T02:35:28.515Z,99289.83
2019-04-03T02:37:56.958Z,99283.70
2019-04-03T02:40:25.348Z,99285.08
2019-04-03T02:42:53.776Z,99276.56
2019-04-03T02:45:24.194Z,99277.08
2019-04-03T02:47:52.353Z,99268.22
2019-04-03T02:50:25.718Z,99271.81
2019-04-03T02:52:58.007Z,99275.59
2019-04-03T02:55:25.194Z,99271.50
2019-04-03T02:57:53.623Z,99263.50
2019-04-03T03:00:22.099Z,99262.64
2019-04-03T03:02:50.627Z,99268.77
2019-04-03T03:05:19.112Z,99267.40
2019-04-03T03:07:47.627Z,99272.01
2019-04-03T03:10:18.645Z,99276.96
2019-04-03T03:12:47.480Z,99283.80
2019-04-03T03:15:16.043Z,99281.06
2019-04-03T03:17:45.256Z,99281.57
2019-04-03T03:20:14.328Z,99271.16
2019-04-03T03:22:43.390Z,99273.57
2019-04-03T03:25:12.475Z,99276.30
2019-04-03T03:27:42.528Z,99276.30
2019-04-03T03:30:34.737Z,99273.23
2019-04-03T03:32:43.806Z,99267.77
2019-04-03T03:35:16.591Z,99271.86
2019-04-03T03:37:42.961Z,99270.69
2019-04-03T03:40:15.055Z,99269.67
2019-04-03T03:42:42.200Z,99271.23
2019-04-03T03:45:11.140Z,99264.92
2019-04-03T03:47:40.812Z,99263.05
2019-04-03T03:50:09.657Z,99270.89
2019-04-03T03:52:39.191Z,99266.48
2019-04-03T03:55:08.565Z,99271.95
2019-04-03T03:57:39.165Z,99266.17
2019-04-03T04:00:09.247Z,99268.05
2019-04-03T04:02:42.667Z,99259.34
2019-04-03T04:05:11.211Z,99257.12
2019-04-03T04:07:39.135Z,99259.00
2019-04-03T04:10:07.916Z,99262.27
2019-04-03T04:12:39.587Z,99264.15
2019-04-03T04:15:07.125Z,99257.31
2019-04-03T04:17:36.001Z,99265.83
2019-04-03T04:20:07.375Z,99258.69
2019-04-03T04:22:37.388Z,99255.95
2019-04-03T04:25:07.088Z,99249.52
2019-04-03T04:27:38.612Z,99247.30
2019-04-03T04:30:06.773Z,99245.42
2019-04-03T04:32:35.527Z,99240.27
2019-04-03T04:35:05.494Z,99241.33
2019-04-03T04:37:33.936Z,99235.01
2019-04-03T04:40:02.427Z,99235.55
2019-04-03T04:42:31.354Z,99233.64
2019-04-03T04:45:00.021Z,99233.13
2019-04-03T04:47:28.454Z,99227.67
2019-04-03T04:49:56.868Z,99235.86
2019-04-03T04:52:25.765Z,99231.45
2019-04-03T04:54:55.441Z,99222.91
2019-04-03T04:57:23.846Z,99232.47
2019-04-03T04:59:52.285Z,99231.66
2019-04-03T05:02:20.765Z,99236.27
2019-04-03T05:04:49.211Z,99231.85
2019-04-03T05:07:17.629Z,99235.09
2019-04-03T05:09:46.028Z,99239.19
2019-04-03T05:12:14.470Z,99226.59
2019-04-03T05:14:42.879Z,99228.97
2019-04-03T05:17:11.313Z,99224.88
2019-04-03T05:19:39.823Z,99208.69
2019-04-03T05:22:08.233Z,99211.11
2019-04-03T05:24:36.929Z,99214.03
2019-04-03T05:27:07.475Z,99206.66
2019-04-03T05:29:35.497Z,99209.20
2019-04-03T05:32:04.219Z,99197.11
2019-04-03T05:34:32.677Z,99205.64
2019-04-03T05:37:01.103Z,99199.33
2019-04-03T05:39:29.555Z,99198.81
2019-04-03T05:41:59.574Z,99203.22
2019-04-03T05:44:28.551Z,99194.52
2019-04-03T05:46:59.446Z,99195.38
2019-04-03T05:49:27.376Z,99189.91
2019-04-03T05:51:55.836Z,99189.91
2019-04-03T05:54:24.373Z,99188.71
2019-04-03T05:56:53.202Z,99183.80
2019-04-03T05:59:21.701Z,99193.35
2019-04-03T06:01:50.133Z,99195.89
2019-04-03T06:04:18.554Z,99199.78
2019-04-03T06:06:47.349Z,99191.91
2019-04-03T06:09:16.011Z,99195.80
2019-04-03T06:11:44.439Z,99198.22
2019-04-03T06:14:12.865Z,99200.75
2019-04-03T06:16:41.271Z,99198.02
2019-04-03T06:19:09.677Z,99193.92
2019-04-03T06:21:38.121Z,99192.25
2019-04-03T06:24:06.529Z,99199.08
2019-04-03T06:26:35.752Z,99191.19
2019-04-03T06:29:07.283Z,99194.13
2019-04-03T06:31:35.408Z,99196.34
2019-04-03T06:34:07.001Z,99192.95
2019-04-03T06:36:34.231Z,99199.27
2019-04-03T06:39:03.221Z,99184.77
2019-04-03T06:41:31.678Z,99183.39
2019-04-03T06:44:00.083Z,99178.45
2019-04-03T06:46:29.734Z,99174.34
2019-04-03T06:48:58.309Z,99176.56
2019-04-03T06:51:26.796Z,99182.03
2019-04-03T06:53:55.240Z,99181.32
2019-04-03T06:56:23.735Z,99184.56
2019-04-03T06:58:52.139Z,99181.32
2019-04-03T07:01:20.663Z,99174.69
2019-04-03T07:03:49.112Z,99174.48
2019-04-03T07:06:17.982Z,99169.73
2019-04-03T07:08:46.427Z,99169.73
2019-04-03T07:11:23.352Z,99170.91
2019-04-03T07:13:44.990Z,99167.31
2019-04-03T07:16:13.438Z,99159.12
2019-04-03T07:18:41.849Z,99159.47
2019-04-03T07:21:10.516Z,99161.66
2019-04-03T07:23:39.129Z,99155.37
2019-04-03T07:26:07.478Z,99163.36
2019-04-03T07:28:35.920Z,99162.20
2019-04-03T07:31:04.390Z,99153.80
2019-04-03T07:33:32.852Z,99151.19
2019-04-03T07:36:01.557Z,99162.42
2019-04-03T07:38:30.144Z,99165.50
2019-04-03T07:40:58.558Z,99175.36
2019-04-03T07:43:27.555Z,99181.69
2019-04-03T07:45:56.664Z,99182.20
2019-04-03T07:48:25.119Z,99188.38
2019-04-03T07:50:53.500Z,99194.03
2019-04-03T07:53:21.928Z,99201.72
2019-04-03T07:55:50.593Z,99197.82
2019-04-03T07:58:19.093Z,99199.19
2019-04-03T08:00:47.530Z,99201.61
2019-04-03T08:03:16.030Z,99205.16
2019-04-03T08:05:44.766Z,99204.65
2019-04-03T08:08:13.265Z,99206.33
2019-04-03T08:10:41.698Z,99210.23
2019-04-03T08:13:10.106Z,99213.09
2019-04-03T08:15:38.791Z,99220.75
2019-04-03T08:18:07.360Z,99215.94
2019-04-03T08:20:36.040Z,99214.89
2019-04-03T08:23:05.637Z,99217.11
2019-04-03T08:25:35.070Z,99218.28
2019-04-03T08:28:03.617Z,99215.85
2019-04-03T08:30:32.030Z,99216.52
2019-04-03T08:33:00.469Z,99225.56
2019-04-03T08:35:28.902Z,99230.06
2019-04-03T08:37:57.336Z,99221.20
2019-04-03T08:40:25.824Z,99213.72
2019-04-03T08:42:54.406Z,99209.63
2019-04-03T08:45:22.906Z,99212.36
2019-04-03T08:47:51.338Z,99216.80
2019-04-03T08:50:20.007Z,99221.01
2019-04-03T08:52:48.495Z,99222.88
2019-04-03T08:55:17.150Z,99226.27
2019-04-03T08:57:46.831Z,99225.11
2019-04-03T09:00:16.262Z,99235.38
2019-04-03T09:02:44.684Z,99240.53
2019-04-03T09:05:14.510Z,99240.73
2019-04-03T09:07:43.215Z,99248.81
2019-04-03T09:10:12.682Z,99252.91
2019-04-03T09:12:41.146Z,99252.56
2019-04-03T09:15:10.088Z,99249.83
2019-04-03T09:17:39.251Z,99259.94
2019-04-03T09:20:07.992Z,99257.41
2019-04-03T09:22:36.617Z,99249.52
2019-04-03T09:25:06.786Z,99252.77
2019-04-03T09:27:35.217Z,99266.42
2019-04-03T09:30:06.318Z,99259.08
2019-04-03T09:32:37.004Z,99265.59
2019-04-03T09:35:07.125Z,99265.05
2019-04-03T09:37:38.044Z,99265.59
2019-04-03T09:40:06.250Z,99260.84
2019-04-03T09:42:34.645Z,99264.09
2019-04-03T09:45:03.234Z,99275.87
2019-04-03T09:47:33.792Z,99278.91
2019-04-03T09:50:02.197Z,99272.94
2019-04-03T09:52:38.722Z,99272.94
2019-04-03T09:55:01.083Z,99274.77
2019-04-03T09:57:31.306Z,99267.73
2019-04-03T09:59:59.720Z,99264.06
2019-04-03T10:02:28.168Z,99262.45
2019-04-03T10:04:58.637Z,99263.52
2019-04-03T10:07:26.719Z,99264.47
2019-04-03T10:09:55.152Z,99269.99
2019-04-03T10:12:23.874Z,99269.70
2019-04-03T10:14:52.325Z,99274.77
2019-04-03T10:17:20.978Z,99266.88
2019-04-03T10:19:49.456Z,99255.95
2019-04-03T10:22:17.874Z,99259.02
2019-04-03T10:24:46.284Z,99243.64
2019-04-03T10:27:14.714Z,99235.98
2019-04-03T10:29:43.154Z,99229.67
2019-04-03T10:32:11.760Z,99238.37
2019-04-03T10:34:40.235Z,99238.58
2019-04-03T10:37:08.659Z,99232.80
2019-04-03T10:39:40.010Z,99222.38
2019-04-03T10:42:07.306Z,99226.28
2019-04-03T10:44:35.708Z,99221.06
2019-04-03T10:47:04.211Z,99221.77
2019-04-03T10:49:32.917Z,99216.95
2019-04-03T10:52:01.316Z,99208.80
2019-04-03T10:54:29.741Z,99203.58
2019-04-03T10:56:58.148Z,99207.54
2019-04-03T10:59:26.954Z,99205.83
2019-04-03T11:01:55.407Z,99206.37
2019-04-03T11:04:23.947Z,99203.42
2019-04-03T11:06:52.392Z,99193.64
2019-04-03T11:09:21.165Z,99187.11
2019-04-03T11:11:49.677Z,99188.06
2019-04-03T11:14:18.093Z,99189.09
2019-04-03T11:16:47.273Z,99186.56
2019-04-03T11:19:15.875Z,99196.89
2019-04-03T11:21:45.045Z,99202.75
2019-04-03T11:24:13.953Z,99202.44
2019-04-03T11:26:42.383Z,99198.64
2019-04-03T11:29:10.978Z,99194.03
2019-04-03T11:31:41.967Z,99190.44
2019-04-03T11:34:09.637Z,99184.79
2019-04-03T11:36:38.224Z,99190.77
2019-04-03T11:39:14.849Z,99195.73
2019-04-03T11:41:39.226Z,99197.61
2019-04-03T11:44:07.653Z,99198.98
2019-04-03T11:46:36.431Z,99189.82
2019-04-03T11:49:05.088Z,99187.77
2019-04-03T11:51:34.461Z,99179.67
2019-04-03T11:54:03.326Z,99172.70
2019-04-03T11:56:31.912Z,99162.51
2019-04-03T11:59:00.598Z,99166.48
2019-04-03T12:01:29.267Z,99176.91
2019-04-03T12:03:57.675Z,99189.01
2019-04-03T12:06:26.458Z,99179.44
2019-04-03T12:08:54.987Z,99176.70
2019-04-03T12:11:23.846Z,99182.17
2019-04-03T12:16:30.678Z,99174.71
2019-04-03T12:18:59.111Z,99169.21
2019-04-03T12:21:28.104Z,99164.91
2019-04-03T12:23:58.166Z,99164.08
2019-04-03T12:26:26.695Z,99166.48
2019-04-03T12:28:55.129Z,99166.17
2019-04-03T12:31:23.654Z,99161.41
2019-04-03T12:33:58.785Z,99158.38
2019-04-03T12:36:22.412Z,99148.26
2019-04-03T12:38:54.597Z,99147.02
2019-04-03T12:41:21.367Z,99163.74
2019-04-03T12:43:50.752Z,99152.19
2019-04-03T12:46:20.853Z,99141.97
2019-04-03T12:48:50.960Z,99150.38
2019-04-03T12:51:20.375Z,99153.83
2019-04-03T12:53:49.341Z,99151.41
2019-04-03T12:56:17.756Z,99150.58
2019-04-03T12:58:46.373Z,99153.11
2019-04-03T13:01:15.336Z,99138.58
2019-04-03T13:03:45.041Z,99132.05
2019-04-03T13:06:13.475Z,99135.44
2019-04-03T13:08:41.891Z,99135.77
2019-04-03T13:11:10.415Z,99123.56
2019-04-03T13:13:39.257Z,99109.98
2019-04-03T13:16:10.196Z,99096.95
2019-04-03T13:18:37.893Z,99100.64
2019-04-03T13:21:09.021Z,99087.74
2019-04-03T13:23:36.626Z,99071.34
2019-04-03T13:26:05.282Z,99072.94
2019-04-03T13:28:36.289Z,99066.70
2019-04-03T13:31:03.971Z,99065.67
2019-04-03T13:33:32.504Z,99074.91
2019-04-03T13:36:00.911Z,99085.04
2019-04-03T13:38:30.031Z,99099.96
2019-04-03T13:40:58.573Z,99102.59
2019-04-03T13:43:27.122Z,99097.03
2019-04-03T13:45:55.833Z,99100.48
2019-04-03T13:48:24.369Z,99087.53
2019-04-03T13:50:54.852Z,99073.00
2019-04-03T13:53:25.397Z,99065.34
2019-04-03T13:55:53.077Z,99061.75
2019-04-03T13:58:22.035Z,99059.53
2019-04-03T14:00:59.009Z,99050.98
2019-04-03T14:03:21.120Z,99041.11
2019-04-03T14:05:50.186Z,99039.40
2019-04-03T14:08:18.751Z,99030.03
2019-04-03T14:10:47.304Z,99039.00
2019-04-03T14:13:15.885Z,99036.13
2019-04-03T14:15:44.314Z,99031.08
2019-04-03T14:18:13.282Z,99041.41
2019-04-03T14:20:41.820Z,99042.86
2019-04-03T14:23:10.312Z,99035.59
2019-04-03T14:25:39.307Z,99033.47
2019-04-03T14:28:08.167Z,99032.22
2019-04-03T14:30:36.645Z,99034.31
2019-04-03T14:33:05.526Z,99040.19
2019-04-03T14:35:46.937Z,99047.44
2019-04-03T14:38:04.300Z,99049.73
2019-04-03T14:40:32.726Z,99035.97
2019-04-03T14:43:01.154Z,99030.61
2019-04-03T14:45:29.993Z,99024.49
2019-04-03T14:47:58.504Z,99022.48
2019-04-03T14:50:26.940Z,99017.63
2019-04-03T14:52:55.346Z,99037.28
2019-04-03T14:55:24.290Z,99023.20
2019-04-03T14:57:55.075Z,99027.52
2019-04-03T15:00:28.343Z,99029.29
2019-04-03T15:02:56.181Z,99049.14
2019-04-03T15:05:23.542Z,99045.76
2019-04-03T15:07:52.001Z,99041.02
2019-04-03T15:10:20.801Z,99054.06
2019-04-03T15:12:49.266Z,99052.01
2019-04-03T15:15:18.124Z,99063.66
2019-04-03T15:17:46.663Z,99058.09
2019-04-03T15:20:17.973Z,99064.06
2019-04-03T15:22:46.251Z,99079.84
2019-04-03T15:25:15.920Z,99074.38
2019-04-03T15:27:45.063Z,99058.70
2019-04-03T15:30:14.496Z,99064.67
2019-04-03T15:32:42.930Z,99049.55
2019-04-03T15:35:12.507Z,99058.91
2019-04-03T15:37:42.388Z,99068.33
2019-04-03T15:40:11.694Z,99072.63
2019-04-03T15:42:41.435Z,99082.19
2019-04-03T15:45:11.287Z,99068.42
2019-04-03T15:47:45.018Z,99064.33
2019-04-03T15:50:10.951Z,99057.50
2019-04-03T15:52:39.377Z,99045.92
2019-04-03T15:55:10.636Z,99044.35
2019-04-03T15:57:40.496Z,99055.63
2019-04-03T16:00:14.927Z,99065.39
2019-04-03T16:02:45.680Z,99083.55
2019-04-03T16:05:14.207Z,99086.79
2019-04-03T16:07:42.872Z,99081.22
2019-04-03T16:10:11.845Z,99078.69
2019-04-03T16:12:42.940Z,99085.52
2019-04-03T16:15:10.934Z,99087.40
2019-04-03T16:17:39.876Z,99073.23
2019-04-03T16:20:09.178Z,99052.40
2019-04-03T16:22:38.175Z,99055.98
2019-04-03T16:25:09.161Z,99065.44
2019-04-03T16:27:38.005Z,99070.05
2019-04-03T16:30:08.518Z,99065.30
2019-04-03T16:32:37.612Z,99077.59
2019-04-03T16:35:08.086Z,99087.34
2019-04-03T16:37:37.217Z,99084.31
2019-04-03T16:40:08.078Z,99082.40
2019-04-03T16:42:37.029Z,99090.59
2019-04-03T16:45:09.435Z,99087.55
2019-04-03T16:47:38.063Z,99078.84
2019-04-03T16:50:11.482Z,99086.70
2019-04-03T16:52:40.056Z,99099.84
2019-04-03T16:55:09.349Z,99098.41
2019-04-03T16:57:38.278Z,99113.45
2019-04-03T17:00:10.081Z,99109.50
2019-04-03T17:02:38.999Z,99119.27
2019-04-03T17:05:10.340Z,99115.52
2019-04-03T17:07:38.611Z,99103.53
2019-04-03T17:10:09.757Z,99089.56
2019-04-03T17:12:38.362Z,99076.11
2019-04-03T17:15:08.906Z,99086.83
2019-04-03T17:17:37.643Z,99076.93
2019-04-03T17:20:08.496Z,99067.06
2019-04-03T17:22:38.886Z,99073.17
2019-04-03T17:25:08.326Z,99080.63
2019-04-03T17:27:36.744Z,99106.52
2019-04-03T17:30:10.524Z,99107.37
2019-04-03T17:32:40.003Z,99095.98
2019-04-03T17:35:08.914Z,99088.00
2019-04-03T17:37:37.620Z,99085.13
2019-04-03T17:40:09.026Z,99085.53
2019-04-03T17:42:39.244Z,99073.98
2019-04-03T17:45:07.773Z,99061.05
2019-04-03T17:47:36.373Z,99077.13
2019-04-03T17:50:07.498Z,99116.93
2019-04-03T17:52:36.357Z,99125.33
2019-04-03T17:55:10.993Z,99098.02
2019-04-03T17:57:39.794Z,99093.92
2019-04-03T18:00:20.614Z,99087.91
2019-04-03T18:02:47.689Z,99099.38
2019-04-03T18:05:16.455Z,99105.66
2019-04-03T18:07:44.877Z,99109.25
2019-04-03T18:10:14.429Z,99132.66
2019-04-03T18:12:45.445Z,99116.27
2019-04-03T18:15:13.343Z,99100.40
2019-04-03T18:17:41.817Z,99087.40
2019-04-03T18:20:13.257Z,99090.64
2019-04-03T18:22:41.093Z,99083.50
2019-04-03T18:25:09.820Z,99086.23
2019-04-03T18:27:38.260Z,99096.30
2019-04-03T18:30:11.172Z,99114.60
2019-04-03T18:32:38.636Z,99138.02
2019-04-03T18:35:07.884Z,99142.83
2019-04-03T18:37:36.391Z,99120.63
2019-04-03T18:40:07.278Z,99092.70
2019-04-03T18:42:35.712Z,99100.55
2019-04-03T18:45:05.875Z,99118.30
2019-04-03T18:47:41.130Z,99115.58
2019-04-03T18:50:08.411Z,99101.92
2019-04-03T18:52:38.569Z,99093.42
2019-04-03T18:55:07.698Z,99088.16
2019-04-03T18:57:36.124Z,99084.91
2019-04-03T19:00:06.926Z,99107.27
2019-04-03T19:02:35.357Z,99117.69
2019-04-03T19:05:05.213Z,99115.98
2019-04-03T19:07:33.611Z,99107.78
2019-04-03T19:10:07.407Z,99106.77
2019-04-03T19:12:35.942Z,99099.39
2019-04-03T19:15:03.239Z,99097.52
2019-04-03T19:17:31.835Z,99108.23
2019-04-03T19:20:10.268Z,99100.55
2019-04-03T19:22:30.459Z,99090.99
2019-04-03T19:24:59.340Z,99105.70
2019-04-03T19:27:27.776Z,99116.63
2019-04-03T19:29:56.259Z,99114.75
2019-04-03T19:32:26.251Z,99106.77
2019-04-03T19:34:54.651Z,99107.27
2019-04-03T19:37:23.131Z,99124.17
2019-04-03T19:39:51.520Z,99136.03
2019-04-03T19:42:19.957Z,99139.98
2019-04-03T19:44:49.191Z,99141.89
2019-04-03T19:47:18.213Z,99147.55
2019-04-03T19:49:48.158Z,99150.48
2019-04-03T19:52:16.673Z,99155.60
2019-04-03T19:54:45.106Z,99158.53
2019-04-03T19:57:13.551Z,99148.66
2019-04-03T19:59:41.951Z,99140.67
2019-04-03T20:02:10.377Z,99137.09
2019-04-03T20:04:38.807Z,99126.88
2019-04-03T20:07:07.324Z,99127.93
2019-04-03T20:09:35.756Z,99133.91
2019-04-03T20:12:06.838Z,99133.79
2019-04-03T20:14:34.551Z,99142.48
2019-04-03T20:17:02.965Z,99133.48
2019-04-03T20:19:31.381Z,99139.95
2019-04-03T20:21:59.806Z,99136.41
2019-04-03T20:24:28.237Z,99133.33
2019-04-03T20:26:56.676Z,99121.59
2019-04-03T20:29:27.447Z,99108.96
2019-04-03T20:31:55.271Z,99097.73
2019-04-03T20:34:23.721Z,99088.89
2019-04-03T20:36:54.832Z,99084.28
2019-04-03T20:39:22.309Z,99082.06
2019-04-03T20:41:50.769Z,99085.84
2019-04-03T20:44:19.182Z,99098.44
2019-04-03T20:46:47.610Z,99110.92
2019-04-03T20:49:16.106Z,99102.42
2019-04-03T20:51:44.493Z,99101.26
2019-04-03T20:54:12.909Z,99101.77
2019-04-03T20:56:41.306Z,99085.91
2019-04-03T20:59:12.011Z,99081.50
2019-04-03T21:01:39.870Z,99086.64
2019-04-03T21:04:08.322Z,99093.47
2019-04-03T21:06:37.529Z,99121.58
2019-04-03T21:09:07.275Z,99130.31
2019-04-03T21:11:35.720Z,99115.47
2019-04-03T21:14:05.742Z,99113.25
2019-04-03T21:16:34.489Z,99104.75
2019-04-03T21:19:02.854Z,99105.06
2019-04-03T21:21:31.301Z,99100.66
2019-04-03T21:23:59.732Z,99096.22
2019-04-03T21:26:28.142Z,99103.38
2019-04-03T21:28:56.584Z,99098.95
2019-04-03T21:31:26.015Z,99106.63
2019-04-03T21:33:55.388Z,99091.30
2019-04-03T21:36:23.809Z,99097.27
2019-04-03T21:38:52.286Z,99096.95
2019-04-03T21:41:21.368Z,99103.78
2019-04-03T21:43:49.813Z,99098.33
2019-04-03T21:46:18.248Z,99098.33
2019-04-03T21:48:46.664Z,99104.80
2019-04-03T21:51:15.298Z,99098.18
2019-04-03T21:53:43.742Z,99099.34
2019-04-03T21:56:12.148Z,99099.03
2019-04-03T21:58:40.576Z,99094.94
2019-04-03T22:01:15.260Z,99100.39
2019-04-03T22:03:43.753Z,99109.95
2019-04-03T22:06:12.196Z,99105.86
2019-04-03T22:08:40.646Z,99107.22
2019-04-03T22:11:09.128Z,99109.09
2019-04-03T22:13:38.396Z,99105.00
2019-04-03T22:16:07.545Z,99101.45
2019-04-03T22:18:35.985Z,99099.23
2019-04-03T22:21:04.481Z,99097.01
2019-04-03T22:23:35.679Z,99102.16
2019-04-03T22:26:03.123Z,99096.35
2019-04-03T22:28:31.696Z,99096.70
2019-04-03T22:31:00.291Z,99090.08
2019-04-03T22:33:28.719Z,99094.68
2019-04-03T22:35:57.133Z,99090.90
2019-04-03T22:38:25.573Z,99094.68
2019-04-03T22:40:54.007Z,99094.98
2019-04-03T22:43:22.424Z,99097.72
2019-04-03T22:45:51.173Z,99084.27
2019-04-03T22:48:19.591Z,99086.69
2019-04-03T22:50:48.008Z,99094.68
2019-04-03T22:53:16.428Z,99084.81
2019-04-03T22:55:46.533Z,99087.20
2019-04-03T22:58:15.004Z,99100.84
2019-04-03T23:00:43.445Z,99096.75
2019-04-03T23:03:13.395Z,99085.52
2019-04-03T23:05:41.970Z,99087.94
2019-04-03T23:08:10.381Z,99086.03
2019-04-03T23:10:38.818Z,99073.75
2019-04-03T23:13:07.373Z,99059.29
2019-04-03T23:15:35.803Z,99061.67
2019-04-03T23:18:04.470Z,99058.95
2019-04-03T23:20:32.873Z,99034.39
2019-04-03T23:23:01.305Z,99040.59
2019-04-03T23:25:30.254Z,99051.70
2019-04-03T23:27:58.731Z,99045.39
2019-04-03T23:30:27.143Z,99047.06
2019-04-03T23:32:55.566Z,99042.66
2019-04-03T23:35:23.988Z,99025.98
2019-04-03T23:37:53.862Z,99011.48
2019-04-03T23:40:22.632Z,99009.27
2019-04-03T23:42:51.071Z,98999.41
2019-04-03T23:45:20.034Z,98993.09
2019-04-03T23:47:48.474Z,98994.80
2019-04-03T23:50:16.897Z,98991.22
2019-04-03T23:52:45.301Z,98984.09
2019-04-03T23:55:13.728Z,98990.57
2019-04-03T23:57:42.160Z,98985.11
